createdAt,value
2016-08-26T00:00:40.822Z,24.02
2016-08-26T00:01:40.840Z,24.03
2016-08-26T00:02:40.869Z,23.93
2016-08-26T00:03:40.928Z,23.96
2016-08-26T00:04:40.926Z,23.88
2016-08-26T00:05:40.957Z,23.83
2016-08-26T00:06:40.984Z,23.87
2016-08-26T00:07:41.009Z,23.91
2016-08-26T00:08:41.033Z,23.8
2016-08-26T00:09:41.065Z,23.76
2016-08-26T00:10:41.091Z,23.77
2016-08-26T00:11:41.120Z,23.74
2016-08-26T00:12:41.145Z,23.74
2016-08-26T00:13:41.170Z,23.76
2016-08-26T00:14:41.202Z,23.78
2016-08-26T00:15:41.230Z,23.74
2016-08-26T00:16:41.258Z,23.76
2016-08-26T00:17:41.284Z,23.66
2016-08-26T00:18:41.310Z,23.69
2016-08-26T00:19:41.342Z,23.71
2016-08-26T00:20:41.406Z,23.66
2016-08-26T00:21:41.395Z,23.63
2016-08-26T00:22:44.462Z,23.71
2016-08-26T00:23:41.455Z,23.66
2016-08-26T00:24:41.481Z,23.63
2016-08-26T00:25:41.513Z,23.63
2016-08-26T00:26:41.541Z,23.63
2016-08-26T00:27:41.567Z,23.51
2016-08-26T00:28:41.592Z,23.56
2016-08-26T00:29:41.624Z,23.54
2016-08-26T00:30:41.649Z,23.56
2016-08-26T00:31:41.676Z,23.46
2016-08-26T00:32:41.712Z,23.48
2016-08-26T00:33:41.737Z,23.5
2016-08-26T00:34:41.763Z,23.51
2016-08-26T00:35:41.789Z,23.39
2016-08-26T00:36:41.812Z,23.39
2016-08-26T00:37:41.842Z,23.39
2016-08-26T00:38:41.870Z,23.36
2016-08-26T00:39:41.897Z,23.24
2016-08-26T00:40:41.929Z,23.43
2016-08-26T00:41:41.951Z,23.27
2016-08-26T00:42:41.981Z,23.24
2016-08-26T00:43:42.005Z,23.21
2016-08-26T00:44:42.041Z,23.27
2016-08-26T00:45:42.066Z,23.32
2016-08-26T00:46:42.088Z,23.28
2016-08-26T00:47:42.114Z,23.28
2016-08-26T00:48:42.141Z,23.18
2016-08-26T00:49:42.169Z,23.2
2016-08-26T00:50:42.206Z,23.18
2016-08-26T00:51:42.223Z,23.15
2016-08-26T00:52:42.254Z,23.13
2016-08-26T00:53:42.282Z,23.12
2016-08-26T00:54:42.310Z,23.08
2016-08-26T00:55:42.334Z,23.09
2016-08-26T00:56:42.360Z,23.06
2016-08-26T00:57:42.394Z,23
2016-08-26T00:58:42.416Z,22.98
2016-08-26T00:59:42.444Z,23.03
2016-08-26T01:00:42.473Z,23.02
2016-08-26T01:01:42.498Z,22.98
2016-08-26T01:02:42.527Z,22.91
2016-08-26T01:03:42.557Z,22.96
2016-08-26T01:04:42.581Z,22.9
2016-08-26T01:05:42.610Z,22.93
2016-08-26T01:06:42.632Z,22.88
2016-08-26T01:07:42.666Z,22.91
2016-08-26T01:08:42.691Z,22.9
2016-08-26T01:09:42.720Z,22.78
2016-08-26T01:10:42.745Z,22.84
2016-08-26T01:11:42.769Z,22.85
2016-08-26T01:12:42.798Z,22.83
2016-08-26T01:13:42.824Z,22.76
2016-08-26T01:14:42.852Z,22.81
2016-08-26T01:15:42.884Z,22.76
2016-08-26T01:16:42.912Z,22.7
2016-08-26T01:17:42.934Z,22.69
2016-08-26T01:18:42.960Z,22.69
2016-08-26T01:19:42.988Z,22.7
2016-08-26T01:20:43.013Z,22.6
2016-08-26T01:21:43.038Z,22.59
2016-08-26T01:22:43.070Z,22.57
2016-08-26T01:23:43.193Z,22.65
2016-08-26T01:24:43.201Z,22.55
2016-08-26T01:25:43.211Z,22.54
2016-08-26T01:26:43.224Z,22.62
2016-08-26T01:27:43.218Z,22.48
2016-08-26T01:28:43.503Z,22.57
2016-08-26T01:29:43.371Z,22.51
2016-08-26T01:30:43.381Z,22.5
2016-08-26T01:31:43.412Z,22.44
2016-08-26T01:32:43.417Z,22.54
2016-08-26T01:33:43.421Z,22.45
2016-08-26T01:34:43.430Z,22.51
2016-08-26T01:35:43.479Z,22.41
2016-08-26T01:36:43.476Z,22.53
2016-08-26T01:37:43.487Z,22.5
2016-08-26T01:38:43.498Z,22.48
2016-08-26T01:39:43.524Z,22.43
2016-08-26T01:40:43.554Z,22.41
2016-08-26T01:41:43.575Z,22.38
2016-08-26T01:42:43.602Z,22.44
2016-08-26T01:43:43.633Z,22.45
2016-08-26T01:44:43.657Z,22.35
2016-08-26T01:45:43.742Z,22.39
2016-08-26T01:46:43.715Z,22.36
2016-08-26T01:47:43.737Z,22.26
2016-08-26T01:48:43.774Z,22.29
2016-08-26T01:49:43.807Z,22.26
2016-08-26T01:50:43.817Z,22.22
2016-08-26T01:51:43.841Z,22.2
2016-08-26T01:52:43.871Z,22.22
2016-08-26T01:53:43.897Z,22.32
2016-08-26T01:54:43.937Z,22.14
2016-08-26T01:55:43.950Z,22.11
2016-08-26T01:56:43.999Z,22.13
2016-08-26T01:57:44.003Z,22.23
2016-08-26T01:58:44.029Z,22.15
2016-08-26T01:59:44.063Z,22.06
2016-08-26T02:00:44.091Z,22.08
2016-08-26T02:01:44.109Z,22
2016-08-26T02:02:44.137Z,21.99
2016-08-26T02:03:44.178Z,22
2016-08-26T02:04:44.191Z,22.06
2016-08-26T02:05:44.228Z,22.02
2016-08-26T02:06:44.242Z,21.98
2016-08-26T02:07:44.271Z,21.99
2016-08-26T02:08:44.320Z,21.99
2016-08-26T02:09:44.323Z,21.93
2016-08-26T02:10:44.363Z,21.93
2016-08-26T02:11:44.376Z,21.92
2016-08-26T02:12:44.402Z,21.93
2016-08-26T02:13:44.436Z,21.82
2016-08-26T02:14:44.465Z,21.85
2016-08-26T02:15:44.527Z,21.85
2016-08-26T02:16:44.502Z,21.77
2016-08-26T02:17:44.539Z,21.88
2016-08-26T02:18:44.576Z,21.79
2016-08-26T02:19:44.591Z,21.79
2016-08-26T02:20:44.618Z,21.77
2016-08-26T02:21:44.635Z,21.76
2016-08-26T02:22:44.669Z,21.77
2016-08-26T02:23:44.694Z,21.72
2016-08-26T02:24:44.729Z,21.72
2016-08-26T02:25:44.768Z,21.72
2016-08-26T02:26:44.764Z,21.72
2016-08-26T02:27:44.794Z,21.73
2016-08-26T02:28:44.820Z,21.67
2016-08-26T02:29:44.860Z,21.67
2016-08-26T02:30:44.880Z,21.66
2016-08-26T02:31:44.897Z,21.55
2016-08-26T02:32:44.926Z,21.58
2016-08-26T02:33:44.957Z,21.5
2016-08-26T02:34:44.977Z,21.55
2016-08-26T02:35:45.010Z,21.61
2016-08-26T02:36:45.028Z,21.54
2016-08-26T02:37:45.060Z,21.54
2016-08-26T02:38:45.198Z,21.57
2016-08-26T02:39:45.343Z,21.43
2016-08-26T02:40:45.364Z,21.45
2016-08-26T02:41:45.356Z,21.48
2016-08-26T02:42:45.366Z,21.51
2016-08-26T02:43:45.374Z,21.4
2016-08-26T02:44:45.382Z,21.48
2016-08-26T02:45:45.392Z,21.46
2016-08-26T02:46:45.402Z,21.46
2016-08-26T02:47:45.534Z,21.35
2016-08-26T02:48:45.543Z,21.37
2016-08-26T02:49:45.553Z,21.36
2016-08-26T02:50:45.566Z,21.35
2016-08-26T02:51:45.576Z,21.3
2016-08-26T02:52:45.585Z,21.37
2016-08-26T02:53:45.545Z,21.37
2016-08-26T02:54:45.555Z,21.37
2016-08-26T02:55:45.555Z,21.3
2016-08-26T02:56:45.561Z,21.33
2016-08-26T02:57:45.576Z,21.33
2016-08-26T02:58:45.614Z,21.32
2016-08-26T02:59:45.670Z,21.33
2016-08-26T03:00:45.703Z,21.22
2016-08-26T03:01:45.677Z,21.3
2016-08-26T03:02:45.707Z,21.33
2016-08-26T03:03:45.730Z,21.24
2016-08-26T03:04:45.759Z,21.24
2016-08-26T03:05:45.783Z,21.24
2016-08-26T03:06:45.807Z,21.15
2016-08-26T03:07:45.830Z,21.21
2016-08-26T03:08:45.859Z,21.17
2016-08-26T03:09:45.888Z,21.15
2016-08-26T03:10:45.910Z,21.27
2016-08-26T03:11:45.937Z,21.22
2016-08-26T03:12:45.963Z,21.15
2016-08-26T03:13:45.991Z,21.15
2016-08-26T03:14:46.021Z,21.11
2016-08-26T03:15:46.039Z,21.14
2016-08-26T03:16:46.062Z,21.11
2016-08-26T03:17:46.088Z,21.11
2016-08-26T03:18:46.117Z,21
2016-08-26T03:19:46.142Z,20.97
2016-08-26T03:20:46.173Z,21.05
2016-08-26T03:21:46.191Z,21.06
2016-08-26T03:22:46.218Z,20.95
2016-08-26T03:23:46.243Z,21.02
2016-08-26T03:24:46.269Z,21.06
2016-08-26T03:25:46.294Z,20.96
2016-08-26T03:26:46.318Z,21.02
2016-08-26T03:27:46.349Z,20.9
2016-08-26T03:28:46.370Z,20.9
2016-08-26T03:29:46.394Z,20.87
2016-08-26T03:30:46.437Z,20.93
2016-08-26T03:31:46.446Z,20.95
2016-08-26T03:32:46.474Z,20.88
2016-08-26T03:33:46.500Z,20.92
2016-08-26T03:34:46.524Z,20.85
2016-08-26T03:35:46.563Z,20.84
2016-08-26T03:36:46.576Z,20.84
2016-08-26T03:37:46.653Z,20.87
2016-08-26T03:38:46.628Z,20.74
2016-08-26T03:39:46.653Z,20.78
2016-08-26T03:40:46.686Z,20.8
2016-08-26T03:41:46.705Z,20.72
2016-08-26T03:42:46.737Z,20.72
2016-08-26T03:43:46.754Z,20.77
2016-08-26T03:44:46.779Z,20.74
2016-08-26T03:45:46.804Z,20.72
2016-08-26T03:46:46.835Z,20.72
2016-08-26T03:47:46.858Z,20.81
2016-08-26T03:48:46.879Z,20.77
2016-08-26T03:49:46.906Z,20.6
2016-08-26T03:50:46.933Z,20.66
2016-08-26T03:51:46.955Z,20.6
2016-08-26T03:52:46.980Z,20.66
2016-08-26T03:53:47.007Z,20.62
2016-08-26T03:54:47.030Z,20.62
2016-08-26T03:55:47.057Z,20.6
2016-08-26T03:56:47.081Z,20.65
2016-08-26T03:57:47.107Z,20.65
2016-08-26T03:58:47.249Z,20.6
2016-08-26T03:59:47.259Z,20.6
2016-08-26T04:00:47.272Z,20.59
2016-08-26T04:01:47.436Z,20.55
2016-08-26T04:02:47.449Z,20.52
2016-08-26T04:03:47.459Z,20.52
2016-08-26T04:04:47.472Z,20.51
2016-08-26T04:05:47.478Z,20.5
2016-08-26T04:06:47.475Z,20.52
2016-08-26T04:07:47.483Z,20.44
2016-08-26T04:08:47.539Z,20.44
2016-08-26T04:09:47.548Z,20.43
2016-08-26T04:10:47.541Z,20.44
2016-08-26T04:11:47.550Z,20.41
2016-08-26T04:12:47.557Z,20.52
2016-08-26T04:13:47.607Z,20.43
2016-08-26T04:14:47.621Z,20.44
2016-08-26T04:15:47.639Z,20.39
2016-08-26T04:16:47.647Z,20.47
2016-08-26T04:17:47.654Z,20.51
2016-08-26T04:18:47.672Z,20.36
2016-08-26T04:19:47.682Z,20.32
2016-08-26T04:20:47.692Z,20.32
2016-08-26T04:21:47.713Z,20.28
2016-08-26T04:22:47.736Z,20.31
2016-08-26T04:23:47.768Z,20.31
2016-08-26T04:24:47.796Z,20.31
2016-08-26T04:25:47.811Z,20.29
2016-08-26T04:26:47.841Z,20.32
2016-08-26T04:27:47.863Z,20.4
2016-08-26T04:28:47.892Z,20.29
2016-08-26T04:29:47.911Z,20.29
2016-08-26T04:30:47.960Z,20.37
2016-08-26T04:31:47.962Z,20.37
2016-08-26T04:32:47.996Z,20.25
2016-08-26T04:33:48.015Z,20.29
2016-08-26T04:34:48.040Z,20.29
2016-08-26T04:35:48.063Z,20.25
2016-08-26T04:36:48.089Z,20.25
2016-08-26T04:37:48.115Z,20.26
2016-08-26T04:38:48.141Z,20.29
2016-08-26T04:39:48.163Z,20.29
2016-08-26T04:40:48.185Z,20.31
2016-08-26T04:41:48.214Z,20.29
2016-08-26T04:42:48.240Z,20.28
2016-08-26T04:43:48.263Z,20.26
2016-08-26T04:44:48.290Z,20.26
2016-08-26T04:45:48.310Z,20.18
2016-08-26T04:46:48.352Z,20.26
2016-08-26T04:47:48.370Z,20.13
2016-08-26T04:48:48.388Z,20.14
2016-08-26T04:49:48.413Z,20.19
2016-08-26T04:50:48.437Z,20.16
2016-08-26T04:51:48.547Z,20.14
2016-08-26T04:52:48.554Z,20.07
2016-08-26T04:53:48.600Z,20.14
2016-08-26T04:54:48.627Z,20.14
2016-08-26T04:55:48.633Z,20.14
2016-08-26T04:56:48.588Z,20.09
2016-08-26T04:57:48.611Z,20.13
2016-08-26T04:58:48.635Z,20.14
2016-08-26T04:59:48.658Z,20.07
2016-08-26T05:00:48.683Z,20.13
2016-08-26T05:01:48.710Z,20.11
2016-08-26T05:02:48.737Z,20.21
2016-08-26T05:03:48.756Z,20.18
2016-08-26T05:04:48.782Z,20.18
2016-08-26T05:05:48.875Z,20.04
2016-08-26T05:06:49.089Z,20.06
2016-08-26T05:07:48.858Z,20.18
2016-08-26T05:08:48.883Z,20.09
2016-08-26T05:09:48.959Z,20.16
2016-08-26T05:10:49.040Z,20.06
2016-08-26T05:11:48.956Z,20.04
2016-08-26T05:12:48.984Z,20.13
2016-08-26T05:13:49.010Z,20.03
2016-08-26T05:14:49.032Z,20.06
2016-08-26T05:15:49.057Z,20.04
2016-08-26T05:16:49.081Z,20.03
2016-08-26T05:17:49.105Z,20.02
2016-08-26T05:18:49.139Z,20.06
2016-08-26T05:19:49.157Z,20.09
2016-08-26T05:20:49.179Z,20
2016-08-26T05:21:49.211Z,20.1
2016-08-26T05:22:49.232Z,20.07
2016-08-26T05:23:49.252Z,19.99
2016-08-26T05:24:49.277Z,20.1
2016-08-26T05:25:49.302Z,20.07
2016-08-26T05:26:49.331Z,20.02
2016-08-26T05:27:49.352Z,20
2016-08-26T05:28:49.416Z,20
2016-08-26T05:29:49.398Z,20.07
2016-08-26T05:30:49.425Z,20.02
2016-08-26T05:31:49.447Z,20.06
2016-08-26T05:32:49.470Z,20.07
2016-08-26T05:33:49.500Z,20.04
2016-08-26T05:34:49.522Z,20.07
2016-08-26T05:35:49.549Z,20.02
2016-08-26T05:36:49.573Z,20.04
2016-08-26T05:37:49.598Z,20.06
2016-08-26T05:38:49.622Z,20.07
2016-08-26T05:39:49.652Z,20.07
2016-08-26T05:40:49.737Z,20.02
2016-08-26T05:41:49.796Z,20.03
2016-08-26T05:42:49.797Z,20.04
2016-08-26T05:43:49.744Z,20.03
2016-08-26T05:44:49.768Z,20.06
2016-08-26T05:45:49.801Z,20.06
2016-08-26T05:46:49.829Z,20.13
2016-08-26T05:47:49.843Z,20.16
2016-08-26T05:48:49.875Z,20.16
2016-08-26T05:49:49.925Z,20.06
2016-08-26T05:50:49.916Z,20.16
2016-08-26T05:51:49.940Z,20.1
2016-08-26T05:52:49.965Z,20.06
2016-08-26T05:53:49.986Z,20.11
2016-08-26T05:54:50.024Z,20.06
2016-08-26T05:55:50.041Z,20.13
2016-08-26T05:56:50.062Z,20.14
2016-08-26T05:57:50.085Z,20.13
2016-08-26T05:58:50.121Z,20.16
2016-08-26T05:59:50.141Z,20.16
2016-08-26T06:00:50.160Z,20.13
2016-08-26T06:01:50.181Z,20.16
2016-08-26T06:02:50.208Z,20.11
2016-08-26T06:03:50.232Z,20.26
2016-08-26T06:04:50.256Z,20.28
2016-08-26T06:05:50.288Z,20.29
2016-08-26T06:06:50.315Z,20.29
2016-08-26T06:07:50.330Z,20.32
2016-08-26T06:08:50.353Z,20.26
2016-08-26T06:09:50.386Z,20.29
2016-08-26T06:10:50.407Z,20.4
2016-08-26T06:11:50.426Z,20.36
2016-08-26T06:12:50.456Z,20.47
2016-08-26T06:13:50.479Z,20.31
2016-08-26T06:14:50.503Z,20.37
2016-08-26T06:15:50.528Z,20.37
2016-08-26T06:16:50.554Z,20.41
2016-08-26T06:17:50.577Z,20.51
2016-08-26T06:18:50.603Z,20.44
2016-08-26T06:19:50.627Z,20.5
2016-08-26T06:20:50.651Z,20.5
2016-08-26T06:21:50.689Z,20.56
2016-08-26T06:22:50.705Z,20.59
2016-08-26T06:23:50.727Z,20.66
2016-08-26T06:24:50.788Z,20.59
2016-08-26T06:25:50.772Z,20.66
2016-08-26T06:26:50.808Z,20.72
2016-08-26T06:27:50.832Z,20.74
2016-08-26T06:28:50.848Z,20.75
2016-08-26T06:29:50.878Z,20.72
2016-08-26T06:30:50.898Z,20.81
2016-08-26T06:31:50.923Z,20.85
2016-08-26T06:32:51.767Z,20.82
2016-08-26T06:33:51.084Z,20.93
2016-08-26T06:34:51.022Z,20.95
2016-08-26T06:35:51.116Z,20.95
2016-08-26T06:36:51.165Z,20.99
2016-08-26T06:37:51.187Z,21.03
2016-08-26T06:38:51.213Z,21.07
2016-08-26T06:39:51.301Z,21.09
2016-08-26T06:40:51.148Z,21.11
2016-08-26T06:41:51.169Z,21.21
2016-08-26T06:42:51.194Z,21.22
2016-08-26T06:43:51.274Z,21.32
2016-08-26T06:44:51.247Z,21.32
2016-08-26T06:45:51.266Z,21.37
2016-08-26T06:46:51.344Z,21.32
2016-08-26T06:47:51.320Z,21.43
2016-08-26T06:48:51.342Z,21.43
2016-08-26T06:49:51.371Z,21.5
2016-08-26T06:50:51.445Z,21.57
2016-08-26T06:51:51.543Z,21.58
2016-08-26T06:52:51.560Z,21.61
2016-08-26T06:53:51.475Z,21.66
2016-08-26T06:54:51.493Z,21.69
2016-08-26T06:55:51.526Z,21.77
2016-08-26T06:56:51.545Z,21.77
2016-08-26T06:57:51.622Z,21.92
2016-08-26T06:58:51.592Z,22
2016-08-26T06:59:51.619Z,22.06
2016-08-26T07:00:51.643Z,22.1
2016-08-26T07:01:51.793Z,22.22
2016-08-26T07:02:51.697Z,22.15
2016-08-26T07:03:51.735Z,22.2
2016-08-26T07:04:51.743Z,22.29
2016-08-26T07:05:51.766Z,22.35
2016-08-26T07:06:51.808Z,22.44
2016-08-26T07:07:51.825Z,22.51
2016-08-26T07:08:51.858Z,22.47
2016-08-26T07:09:51.931Z,22.43
2016-08-26T07:10:51.896Z,22.55
2016-08-26T07:11:51.925Z,22.57
2016-08-26T07:12:52.048Z,22.68
2016-08-26T07:13:52.084Z,22.81
2016-08-26T07:14:52.297Z,22.83
2016-08-26T07:15:52.211Z,22.91
2016-08-26T07:16:52.180Z,22.96
2016-08-26T07:17:52.186Z,23.02
2016-08-26T07:18:52.098Z,23.12
2016-08-26T07:19:52.127Z,23.2
2016-08-26T07:20:52.153Z,23.25
2016-08-26T07:21:52.172Z,23.21
2016-08-26T07:22:52.195Z,23.4
2016-08-26T07:23:52.230Z,23.36
2016-08-26T07:24:52.301Z,23.46
2016-08-26T07:25:52.274Z,23.59
2016-08-26T07:26:52.307Z,23.62
2016-08-26T07:27:52.325Z,23.74
2016-08-26T07:28:52.355Z,23.84
2016-08-26T07:29:52.373Z,23.73
2016-08-26T07:30:52.558Z,23.76
2016-08-26T07:31:52.428Z,23.91
2016-08-26T07:32:52.468Z,23.96
2016-08-26T07:33:52.479Z,24.03
2016-08-26T07:34:52.735Z,24.01
2016-08-26T07:35:52.533Z,24.14
2016-08-26T07:36:52.559Z,24.24
2016-08-26T07:37:52.585Z,24.23
2016-08-26T07:38:52.705Z,24.43
2016-08-26T07:39:52.643Z,24.45
2016-08-26T07:40:52.668Z,24.47
2016-08-26T07:41:52.898Z,24.57
2016-08-26T07:42:52.779Z,24.51
2016-08-26T07:43:52.827Z,24.61
2016-08-26T07:44:52.862Z,24.74
2016-08-26T07:45:52.868Z,24.76
2016-08-26T07:46:52.974Z,24.8
2016-08-26T07:47:52.841Z,24.96
2016-08-26T07:48:52.920Z,24.95
2016-08-26T07:49:53.014Z,25.01
2016-08-26T07:50:52.919Z,25.08
2016-08-26T07:51:52.961Z,25.13
2016-08-26T07:52:52.971Z,25.23
2016-08-26T07:53:53.005Z,25.28
2016-08-26T07:54:53.025Z,25.31
2016-08-26T07:55:53.050Z,25.46
2016-08-26T07:56:53.076Z,25.5
2016-08-26T07:57:53.108Z,25.58
2016-08-26T07:58:53.311Z,25.55
2016-08-26T07:59:53.316Z,25.59
2016-08-26T08:00:53.891Z,25.65
2016-08-26T08:01:53.209Z,25.7
2016-08-26T08:02:53.232Z,25.78
2016-08-26T08:03:53.265Z,25.81
2016-08-26T08:04:53.288Z,25.83
2016-08-26T08:05:53.322Z,25.96
2016-08-26T08:06:53.343Z,25.96
2016-08-26T08:07:53.368Z,26.07
2016-08-26T08:08:53.424Z,26.15
2016-08-26T08:09:53.424Z,26.15
2016-08-26T08:10:53.450Z,26.15
2016-08-26T08:11:53.474Z,26.29
2016-08-26T08:12:53.567Z,26.33
2016-08-26T08:13:53.527Z,26.37
2016-08-26T08:14:53.556Z,26.38
2016-08-26T08:15:53.587Z,26.45
2016-08-26T08:16:53.612Z,26.53
2016-08-26T08:17:53.662Z,26.53
2016-08-26T08:18:53.666Z,26.58
2016-08-26T08:19:53.694Z,26.63
2016-08-26T08:20:53.723Z,26.68
2016-08-26T08:21:53.746Z,26.74
2016-08-26T08:22:53.775Z,26.73
2016-08-26T08:23:53.804Z,26.95
2016-08-26T08:24:53.940Z,26.93
2016-08-26T08:25:53.970Z,27
2016-08-26T08:26:53.982Z,27.07
2016-08-26T08:27:54.029Z,27.1
2016-08-26T08:28:54.134Z,27.18
2016-08-26T08:29:53.966Z,27.29
2016-08-26T08:30:54.197Z,27.27
2016-08-26T08:31:54.021Z,27.35
2016-08-26T08:32:54.044Z,27.44
2016-08-26T08:33:54.081Z,27.52
2016-08-26T08:34:54.111Z,27.51
2016-08-26T08:35:54.133Z,27.49
2016-08-26T08:36:54.165Z,27.55
2016-08-26T08:37:54.193Z,27.59
2016-08-26T08:38:54.211Z,27.68
2016-08-26T08:39:54.242Z,27.71
2016-08-26T08:40:54.270Z,27.77
2016-08-26T08:41:54.295Z,27.89
2016-08-26T08:42:54.326Z,27.87
2016-08-26T08:43:54.359Z,28.01
2016-08-26T08:44:54.380Z,28.02
2016-08-26T08:45:54.413Z,28.1
2016-08-26T08:46:54.437Z,28.19
2016-08-26T08:47:54.464Z,28.25
2016-08-26T08:48:54.489Z,28.3
2016-08-26T08:49:55.239Z,28.35
2016-08-26T08:50:54.749Z,28.44
2016-08-26T08:51:54.572Z,28.45
2016-08-26T08:52:54.603Z,28.57
2016-08-26T08:53:54.839Z,28.62
2016-08-26T08:54:54.665Z,28.62
2016-08-26T08:55:54.691Z,28.67
2016-08-26T08:56:54.714Z,28.7
2016-08-26T08:57:54.749Z,28.74
2016-08-26T08:58:54.772Z,28.84
2016-08-26T08:59:54.799Z,28.88
2016-08-26T09:00:54.829Z,29.01
2016-08-26T09:01:54.865Z,29.1
2016-08-26T09:02:54.885Z,29.07
2016-08-26T09:03:55.633Z,29.16
2016-08-26T09:04:54.956Z,29.14
2016-08-26T09:05:54.974Z,29.2
2016-08-26T09:06:55.000Z,29.24
2016-08-26T09:07:55.034Z,29.36
2016-08-26T09:08:55.056Z,29.42
2016-08-26T09:09:55.085Z,29.5
2016-08-26T09:10:55.118Z,29.53
2016-08-26T09:11:55.147Z,29.56
2016-08-26T09:12:55.175Z,29.54
2016-08-26T09:13:55.214Z,29.73
2016-08-26T09:14:55.232Z,29.66
2016-08-26T09:15:55.259Z,29.71
2016-08-26T09:16:55.291Z,29.79
2016-08-26T09:17:55.320Z,29.84
2016-08-26T09:18:55.348Z,30.02
2016-08-26T09:19:55.379Z,29.98
2016-08-26T09:20:55.409Z,30.03
2016-08-26T09:21:55.433Z,30.09
2016-08-26T09:22:55.468Z,30.18
2016-08-26T09:23:55.504Z,30.31
2016-08-26T09:24:55.520Z,30.35
2016-08-26T09:25:55.553Z,30.34
2016-08-26T09:26:55.649Z,30.44
2016-08-26T09:27:55.642Z,30.4
2016-08-26T09:28:55.659Z,30.53
2016-08-26T09:29:55.795Z,30.61
2016-08-26T09:30:55.829Z,30.66
2016-08-26T09:31:55.839Z,30.77
2016-08-26T09:32:55.838Z,30.73
2016-08-26T09:33:55.846Z,30.87
2016-08-26T09:34:55.855Z,30.94
2016-08-26T09:35:55.869Z,30.94
2016-08-26T09:36:55.988Z,31.02
2016-08-26T09:37:56.011Z,31.12
2016-08-26T09:38:56.022Z,31.18
2016-08-26T09:39:55.969Z,31.27
2016-08-26T09:40:56.008Z,31.25
2016-08-26T09:41:56.028Z,31.36
2016-08-26T09:42:56.057Z,31.4
2016-08-26T09:43:56.092Z,31.33
2016-08-26T09:44:56.126Z,31.4
2016-08-26T09:45:56.151Z,31.52
2016-08-26T09:46:56.179Z,31.52
2016-08-26T09:47:56.209Z,31.65
2016-08-26T09:48:56.244Z,31.76
2016-08-26T09:49:56.270Z,31.69
2016-08-26T09:50:56.299Z,31.87
2016-08-26T09:51:56.335Z,31.85
2016-08-26T09:52:56.364Z,31.97
2016-08-26T09:53:56.394Z,32.07
2016-08-26T09:54:57.143Z,32.03
2016-08-26T09:55:56.457Z,32.19
2016-08-26T09:56:56.494Z,32.18
2016-08-26T09:57:56.519Z,32.29
2016-08-26T09:58:56.549Z,32.34
2016-08-26T09:59:56.577Z,32.34
2016-08-26T10:00:56.618Z,32.4
2016-08-26T10:01:56.644Z,32.38
2016-08-26T10:02:56.672Z,32.45
2016-08-26T10:03:56.701Z,32.63
2016-08-26T10:04:56.738Z,32.58
2016-08-26T10:05:56.763Z,32.65
2016-08-26T10:06:56.800Z,32.71
2016-08-26T10:07:56.830Z,32.73
2016-08-26T10:08:56.858Z,32.82
2016-08-26T10:09:56.887Z,32.86
2016-08-26T10:10:56.921Z,32.95
2016-08-26T10:11:57.152Z,32.95
2016-08-26T10:12:56.982Z,33
2016-08-26T10:13:57.011Z,33.02
2016-08-26T10:14:57.050Z,33.09
2016-08-26T10:15:57.073Z,33.07
2016-08-26T10:16:57.106Z,33.11
2016-08-26T10:17:57.138Z,33.22
2016-08-26T10:18:57.169Z,33.32
2016-08-26T10:19:57.204Z,33.3
2016-08-26T10:20:57.238Z,33.32
2016-08-26T10:21:57.265Z,33.42
2016-08-26T10:22:57.293Z,33.55
2016-08-26T10:23:57.331Z,33.52
2016-08-26T10:24:57.363Z,33.57
2016-08-26T10:25:57.419Z,33.69
2016-08-26T10:26:57.440Z,33.69
2016-08-26T10:27:57.455Z,33.73
2016-08-26T10:28:57.490Z,33.8
2016-08-26T10:29:57.524Z,33.81
2016-08-26T10:30:57.562Z,33.87
2016-08-26T10:31:57.589Z,33.92
2016-08-26T10:32:57.614Z,33.99
2016-08-26T10:33:57.649Z,34.1
2016-08-26T10:34:57.680Z,34.1
2016-08-26T10:35:57.724Z,34.17
2016-08-26T10:36:57.743Z,34.21
2016-08-26T10:37:57.774Z,34.23
2016-08-26T10:38:57.809Z,34.39
2016-08-26T10:39:57.846Z,34.38
2016-08-26T10:40:57.870Z,34.42
2016-08-26T10:41:57.904Z,34.47
2016-08-26T10:42:57.943Z,34.54
2016-08-26T10:43:57.967Z,34.67
2016-08-26T10:44:58.003Z,34.74
2016-08-26T10:45:58.039Z,34.67
2016-08-26T10:46:58.067Z,34.71
2016-08-26T10:47:58.099Z,34.64
2016-08-26T10:48:58.133Z,34.77
2016-08-26T10:49:58.165Z,34.81
2016-08-26T10:50:58.205Z,34.86
2016-08-26T10:51:58.227Z,34.95
2016-08-26T10:52:58.269Z,34.93
2016-08-26T10:53:58.304Z,35
2016-08-26T10:54:58.333Z,34.93
2016-08-26T10:55:58.364Z,35.02
2016-08-26T10:56:58.398Z,35.02
2016-08-26T10:57:58.425Z,35.1
2016-08-26T10:58:58.461Z,35.14
2016-08-26T10:59:58.493Z,35.17
2016-08-26T11:00:58.640Z,35.14
2016-08-26T11:01:58.654Z,35.23
2016-08-26T11:02:58.682Z,35.23
2016-08-26T11:03:58.853Z,35.26
2016-08-26T11:04:58.868Z,35.27
2016-08-26T11:05:58.877Z,35.33
2016-08-26T11:06:59.618Z,35.36
2016-08-26T11:07:58.928Z,35.39
2016-08-26T11:08:58.938Z,35.39
2016-08-26T11:09:58.950Z,35.51
2016-08-26T11:10:58.945Z,35.56
2016-08-26T11:11:58.989Z,35.63
2016-08-26T11:12:59.004Z,35.64
2016-08-26T11:13:59.035Z,35.7
2016-08-26T11:14:59.755Z,35.86
2016-08-26T11:15:59.040Z,35.83
2016-08-26T11:16:59.067Z,35.9
2016-08-26T11:17:59.101Z,35.89
2016-08-26T11:18:59.132Z,35.89
2016-08-26T11:19:59.169Z,35.92
2016-08-26T11:20:59.193Z,36.05
2016-08-26T11:21:59.228Z,36.08
2016-08-26T11:22:59.266Z,36.08
2016-08-26T11:23:59.297Z,36.16
2016-08-26T11:25:00.128Z,36.28
2016-08-26T11:25:59.365Z,36.27
2016-08-26T11:26:59.401Z,36.31
2016-08-26T11:27:59.434Z,36.3
2016-08-26T11:28:59.469Z,36.36
2016-08-26T11:29:59.501Z,36.35
2016-08-26T11:30:59.537Z,36.35
2016-08-26T11:31:59.570Z,36.42
2016-08-26T11:32:59.605Z,36.47
2016-08-26T11:33:59.640Z,36.42
2016-08-26T11:34:59.675Z,36.51
2016-08-26T11:35:59.914Z,36.49
2016-08-26T11:36:59.744Z,36.57
2016-08-26T11:37:59.779Z,36.57
2016-08-26T11:38:59.810Z,36.58
2016-08-26T11:39:59.846Z,36.65
2016-08-26T11:40:59.881Z,36.7
2016-08-26T11:41:59.911Z,36.68
2016-08-26T11:43:00.008Z,36.72
2016-08-26T11:43:59.989Z,36.76
2016-08-26T11:45:00.025Z,36.72
2016-08-26T11:46:00.055Z,36.83
2016-08-26T11:47:00.085Z,36.84
2016-08-26T11:48:00.122Z,36.93
2016-08-26T11:49:00.157Z,36.96
2016-08-26T11:50:00.190Z,36.93
2016-08-26T11:51:00.225Z,37.02
2016-08-26T11:52:00.258Z,36.99
2016-08-26T11:53:00.298Z,37.1
2016-08-26T11:54:00.335Z,37.08
2016-08-26T11:55:00.364Z,37.06
2016-08-26T11:56:00.398Z,37.11
2016-08-26T11:57:00.434Z,37.17
2016-08-26T11:58:00.468Z,37.2
2016-08-26T11:59:00.511Z,37.18
2016-08-26T12:00:00.539Z,37.25
2016-08-26T12:01:00.882Z,37.32
2016-08-26T12:02:00.707Z,37.3
2016-08-26T12:03:00.733Z,37.2
2016-08-26T12:04:00.905Z,37.3
2016-08-26T12:05:00.919Z,37.37
2016-08-26T12:06:00.922Z,37.36
2016-08-26T12:07:00.928Z,37.39
2016-08-26T12:08:00.940Z,37.45
2016-08-26T12:09:00.946Z,37.47
2016-08-26T12:10:01.096Z,37.53
2016-08-26T12:11:00.996Z,37.42
2016-08-26T12:12:01.045Z,37.49
2016-08-26T12:13:01.069Z,37.59
2016-08-26T12:14:01.093Z,37.6
2016-08-26T12:15:01.079Z,37.7
2016-08-26T12:16:01.101Z,37.65
2016-08-26T12:17:01.135Z,37.71
2016-08-26T12:18:01.170Z,37.68
2016-08-26T12:19:01.203Z,37.7
2016-08-26T12:20:01.265Z,37.68
2016-08-26T12:21:01.274Z,37.82
2016-08-26T12:22:01.314Z,37.82
2016-08-26T12:23:01.343Z,37.86
2016-08-26T12:24:01.379Z,37.94
2016-08-26T12:25:01.425Z,37.92
2016-08-26T12:26:01.457Z,37.89
2016-08-26T12:27:01.488Z,38.06
2016-08-26T12:28:01.523Z,38.04
2016-08-26T12:29:01.566Z,38.04
2016-08-26T12:30:02.296Z,38.08
2016-08-26T12:31:01.629Z,38.05
2016-08-26T12:32:01.670Z,38.01
2016-08-26T12:33:01.698Z,38.09
2016-08-26T12:34:01.732Z,38.04
2016-08-26T12:35:01.771Z,38.11
2016-08-26T12:36:01.808Z,38.08
2016-08-26T12:37:01.838Z,38.08
2016-08-26T12:38:01.875Z,37.99
2016-08-26T12:39:01.917Z,38.04
2016-08-26T12:40:01.947Z,38.05
2016-08-26T12:41:01.986Z,38.04
2016-08-26T12:42:02.027Z,38.09
2016-08-26T12:43:02.052Z,38.19
2016-08-26T12:44:02.090Z,38.17
2016-08-26T12:45:02.126Z,38.19
2016-08-26T12:46:02.165Z,38.19
2016-08-26T12:47:02.198Z,38.2
2016-08-26T12:48:02.239Z,38.26
2016-08-26T12:49:02.279Z,38.3
2016-08-26T12:50:02.306Z,38.28
2016-08-26T12:51:02.394Z,38.36
2016-08-26T12:52:02.403Z,38.39
2016-08-26T12:53:02.413Z,38.4
2016-08-26T12:54:02.448Z,38.4
2016-08-26T12:55:02.490Z,38.3
2016-08-26T12:56:02.537Z,38.46
2016-08-26T12:57:02.560Z,38.45